Time;durP1;ratioP1;P1;durP2;ratioP2;P2;SDS_P1;SDS_P2;PMS_P1;PMS_P2;Temp;Humidity;BMP_temperature;BMP_pressure;BME280_temperature;BME280_humidity;BME280_pressure;Samples;Min_cycle;Max_cycle;Signal;HPM_P1;HPM_P2
2022/01/06 00:01:40;;;;;;;15.32;2.80;;;3.80;99.90;;;;;;4839921;29;20267;-87
2022/01/06 00:04:06;;;;;;;18.38;3.10;;;3.90;99.90;;;;;;4843569;29;20041;-87
2022/01/06 00:06:37;;;;;;;16.00;3.15;;;3.90;99.90;;;;;;4844460;29;20142;-88
2022/01/06 00:09:05;;;;;;;16.33;3.08;;;3.80;99.90;;;;;;4828705;29;20500;-88
2022/01/06 00:11:30;;;;;;;17.42;2.83;;;3.80;99.90;;;;;;4844171;29;20055;-88
2022/01/06 00:14:05;;;;;;;19.60;3.05;;;3.70;99.90;;;;;;4828689;29;20457;-88
2022/01/06 00:24:12;;;;;;;22.55;3.22;;;3.60;99.90;;;;;;4856362;29;20056;-88
2022/01/06 00:26:38;;;;;;;25.88;3.75;;;3.60;99.90;;;;;;4840979;29;20054;-88
2022/01/06 00:29:04;;;;;;;28.73;3.85;;;3.60;99.90;;;;;;4825426;29;20133;-88
2022/01/06 00:31:31;;;;;;;26.38;3.40;;;3.80;99.90;;;;;;4825547;29;20469;-88
2022/01/06 00:33:57;;;;;;;20.98;3.17;;;3.80;99.90;;;;;;4825390;29;20493;-88
2022/01/06 00:36:22;;;;;;;23.45;4.22;;;3.80;99.90;;;;;;4825732;29;20046;-88
2022/01/06 00:38:48;;;;;;;28.00;3.72;;;3.80;99.90;;;;;;4827863;29;20050;-88
2022/01/06 00:41:13;;;;;;;27.90;4.47;;;3.70;99.90;;;;;;4828675;29;20052;-88
2022/01/06 00:43:39;;;;;;;33.03;3.75;;;3.60;99.90;;;;;;4828269;29;20053;-88
2022/01/06 00:46:05;;;;;;;22.23;3.33;;;3.60;99.90;;;;;;4828013;29;20050;-88
2022/01/06 00:48:30;;;;;;;19.10;3.67;;;3.50;99.90;;;;;;4828185;29;20041;-88
2022/01/06 00:50:56;;;;;;;23.10;3.35;;;3.50;99.90;;;;;;4828314;29;20052;-88
2022/01/06 00:53:21;;;;;;;25.55;3.05;;;3.40;99.90;;;;;;4828508;29;20065;-87
2022/01/06 00:55:47;;;;;;;25.55;3.75;;;3.40;99.90;;;;;;4827885;29;20049;-89
2022/01/06 00:58:13;;;;;;;21.42;3.40;;;3.30;99.90;;;;;;4828664;29;20046;-88
2022/01/06 01:00:40;;;;;;;23.02;2.97;;;3.20;99.90;;;;;;4812732;29;20053;-88
2022/01/06 01:03:20;;;;;;;21.13;3.45;;;3.20;99.90;;;;;;4828125;29;20045;-89
2022/01/06 01:05:48;;;;;;;21.38;3.92;;;3.10;99.90;;;;;;4827882;29;20105;-88
2022/01/06 01:08:14;;;;;;;23.65;3.60;;;3.10;99.90;;;;;;4828307;29;20500;-88
2022/01/06 01:10:40;;;;;;;22.95;3.33;;;3.10;99.90;;;;;;4828213;29;20089;-89
2022/01/06 01:13:10;;;;;;;19.95;3.28;;;3.00;99.90;;;;;;4814962;29;20105;-89
2022/01/06 01:15:44;;;;;;;25.08;4.40;;;3.00;99.90;;;;;;4824299;29;20042;-88
2022/01/06 01:18:10;;;;;;;23.00;3.90;;;3.00;99.90;;;;;;4854036;29;20049;-88
2022/01/06 01:20:36;;;;;;;28.60;3.50;;;3.00;99.90;;;;;;4828151;29;20049;-88
2022/01/06 01:23:01;;;;;;;33.03;3.75;;;3.00;99.90;;;;;;4827774;29;20412;-88
2022/01/06 01:25:27;;;;;;;27.58;4.20;;;2.90;99.90;;;;;;4828201;29;20049;-88
2022/01/06 01:27:55;;;;;;;26.17;2.97;;;2.90;99.90;;;;;;4827027;29;20050;-88
2022/01/06 01:30:28;;;;;;;29.67;4.22;;;2.90;99.90;;;;;;4827881;29;20133;-88
2022/01/06 01:32:54;;;;;;;23.50;4.40;;;2.90;99.90;;;;;;4827039;29;20076;-88
2022/01/06 01:35:20;;;;;;;31.70;4.00;;;2.80;99.90;;;;;;4827631;29;20101;-88
2022/01/06 01:37:46;;;;;;;37.10;3.67;;;2.80;99.90;;;;;;4827007;29;20045;-88
2022/01/06 01:40:11;;;;;;;25.17;3.78;;;2.80;99.90;;;;;;4842748;29;20483;-88
2022/01/06 01:42:37;;;;;;;21.35;3.60;;;2.80;99.90;;;;;;4841865;29;20137;-88
2022/01/06 01:45:05;;;;;;;24.27;3.88;;;2.70;99.90;;;;;;4842648;29;20145;-88
2022/01/06 01:47:39;;;;;;;31.52;4.45;;;2.70;99.90;;;;;;4842723;29;20046;-88
2022/01/06 01:50:12;;;;;;;25.13;4.22;;;2.60;99.90;;;;;;4842303;29;20508;-88
2022/01/06 01:52:44;;;;;;;21.75;4.43;;;2.60;99.90;;;;;;4842655;29;20508;-87
2022/01/06 01:55:15;;;;;;;28.02;3.88;;;2.60;99.90;;;;;;4827575;29;20052;-88
2022/01/06 01:57:41;;;;;;;34.35;4.70;;;2.50;99.90;;;;;;4842243;29;20049;-88
2022/01/06 02:00:10;;;;;;;29.65;4.40;;;2.50;99.90;;;;;;4842520;29;20078;-88
2022/01/06 02:02:35;;;;;;;33.35;4.75;;;2.60;99.90;;;;;;4826828;29;20048;-88
2022/01/06 02:05:01;;;;;;;25.77;3.90;;;2.50;99.90;;;;;;4827229;29;20532;-88
2022/01/06 02:07:27;;;;;;;32.35;4.18;;;2.50;99.90;;;;;;4841833;29;20040;-88
2022/01/06 02:09:53;;;;;;;33.80;5.18;;;2.50;99.90;;;;;;4841848;29;20132;-88
2022/01/06 02:12:26;;;;;;;25.98;3.63;;;2.50;99.90;;;;;;4841742;29;20133;-88
2022/01/06 02:14:52;;;;;;;25.55;4.18;;;2.60;99.90;;;;;;4841757;29;20109;-87
2022/01/06 02:17:18;;;;;;;27.52;4.00;;;2.50;99.90;;;;;;4841945;29;20512;-88
2022/01/06 02:20:00;;;;;;;29.73;4.43;;;2.50;99.90;;;;;;4857478;29;20052;-88
2022/01/06 02:22:26;;;;;;;21.42;3.35;;;2.40;99.90;;;;;;4826598;29;20508;-89
2022/01/06 02:24:53;;;;;;;36.83;4.15;;;2.40;99.90;;;;;;4826440;29;20159;-88
2022/01/06 02:27:20;;;;;;;23.13;3.92;;;2.30;99.90;;;;;;4824877;29;20045;-88
2022/01/06 02:29:47;;;;;;;30.65;4.22;;;2.40;99.90;;;;;;4826396;29;20438;-88
2022/01/06 02:32:16;;;;;;;30.52;3.85;;;2.30;99.90;;;;;;4826835;29;20050;-88
2022/01/06 02:34:43;;;;;;;23.15;3.83;;;2.20;99.90;;;;;;4826254;29;20412;-88
2022/01/06 02:37:08;;;;;;;20.67;3.40;;;2.20;99.90;;;;;;4841969;29;20458;-88
2022/01/06 02:39:34;;;;;;;25.27;3.40;;;2.10;99.90;;;;;;4841639;29;20053;-87
2022/01/06 02:42:00;;;;;;;27.42;3.92;;;2.10;99.90;;;;;;4840884;29;20496;-88
2022/01/06 02:44:26;;;;;;;25.70;4.13;;;2.10;99.90;;;;;;4838314;29;20057;-88
2022/01/06 02:46:53;;;;;;;27.02;3.80;;;2.10;99.90;;;;;;4838247;29;20050;-88
2022/01/06 02:49:18;;;;;;;22.55;4.72;;;2.10;99.90;;;;;;4838866;29;20098;-88
2022/01/06 02:51:44;;;;;;;30.88;4.45;;;2.10;99.90;;;;;;4837996;29;20046;-88
2022/01/06 02:54:10;;;;;;;30.40;3.95;;;2.10;99.90;;;;;;4838878;29;20050;-88
2022/01/06 02:56:37;;;;;;;30.40;4.30;;;2.00;99.90;;;;;;4837952;29;20057;-88
2022/01/06 02:59:03;;;;;;;33.67;4.03;;;2.00;99.90;;;;;;4838265;29;20073;-88
2022/01/06 03:01:29;;;;;;;30.20;4.18;;;2.00;99.90;;;;;;4838383;29;20062;-89
2022/01/06 03:03:55;;;;;;;21.83;3.13;;;2.00;99.90;;;;;;4838056;29;20497;-88
2022/01/06 03:06:20;;;;;;;16.88;2.92;;;2.00;99.90;;;;;;4838066;29;20529;-88
2022/01/06 03:08:46;;;;;;;16.90;3.40;;;2.00;99.90;;;;;;4853379;29;20061;-88
2022/01/06 03:11:11;;;;;;;29.95;4.05;;;2.00;99.90;;;;;;4837733;29;20442;-88
2022/01/06 03:13:37;;;;;;;25.15;3.92;;;2.00;99.90;;;;;;4838322;29;20054;-88
2022/01/06 03:16:03;;;;;;;31.40;5.32;;;2.00;99.90;;;;;;4837729;29;20077;-89
2022/01/06 03:18:29;;;;;;;30.85;3.13;;;2.00;99.90;;;;;;4838243;29;20144;-88
2022/01/06 03:20:55;;;;;;;29.30;4.05;;;2.00;99.90;;;;;;4834400;29;20069;-88
2022/01/06 03:23:20;;;;;;;30.02;3.80;;;2.00;99.90;;;;;;4838239;29;20041;-89
2022/01/06 03:25:46;;;;;;;27.88;4.13;;;2.00;99.90;;;;;;4837803;29;20045;-87
2022/01/06 03:28:12;;;;;;;23.45;3.72;;;2.00;99.90;;;;;;4838291;29;20054;-89
2022/01/06 03:30:37;;;;;;;25.33;3.55;;;2.00;99.90;;;;;;4838112;29;20114;-88
2022/01/06 03:33:03;;;;;;;16.85;3.00;;;2.00;99.90;;;;;;4837706;29;20042;-88
2022/01/06 03:35:28;;;;;;;24.58;3.75;;;2.00;99.90;;;;;;4838001;29;20054;-89
2022/01/06 03:37:54;;;;;;;22.55;3.03;;;1.90;99.90;;;;;;4821725;29;20049;-88
2022/01/06 03:40:20;;;;;;;19.52;3.22;;;1.90;99.90;;;;;;4822865;29;20397;-88
2022/01/06 03:42:47;;;;;;;23.58;4.10;;;1.80;99.90;;;;;;4837723;29;20042;-88
2022/01/06 03:45:15;;;;;;;22.65;3.10;;;1.80;99.90;;;;;;4822118;29;20108;-88
2022/01/06 03:47:41;;;;;;;26.30;3.47;;;1.80;99.90;;;;;;4819781;29;20078;-88
2022/01/06 03:50:09;;;;;;;25.25;3.00;;;1.70;99.90;;;;;;4839688;29;20132;-89
2022/01/06 03:52:34;;;;;;;18.48;3.13;;;1.70;99.90;;;;;;4837396;29;20053;-88
2022/01/06 03:55:01;;;;;;;27.92;3.83;;;1.70;99.90;;;;;;4837270;29;20046;-89
2022/01/06 03:57:26;;;;;;;26.50;3.85;;;1.70;99.90;;;;;;4837840;29;20053;-86
2022/01/06 03:59:52;;;;;;;21.88;2.88;;;1.60;99.90;;;;;;4837286;29;20046;-88
2022/01/06 04:02:18;;;;;;;21.83;3.25;;;1.60;99.90;;;;;;4827162;29;20102;-88
2022/01/06 04:04:43;;;;;;;30.77;3.20;;;1.60;99.90;;;;;;4855497;29;20052;-88
2022/01/06 04:07:09;;;;;;;16.45;3.22;;;1.50;99.90;;;;;;4837285;29;20057;-88
2022/01/06 04:09:34;;;;;;;18.27;3.00;;;1.50;99.90;;;;;;4837401;29;20066;-88
2022/01/06 04:12:00;;;;;;;22.30;3.25;;;1.50;99.90;;;;;;4822546;29;20169;-87
2022/01/06 04:14:25;;;;;;;21.58;3.75;;;1.40;99.90;;;;;;4837359;29;20573;-88
2022/01/06 04:16:58;;;;;;;20.70;3.22;;;1.40;99.90;;;;;;4824937;29;20050;-88
2022/01/06 04:19:23;;;;;;;27.80;3.05;;;1.40;99.90;;;;;;4837381;29;20046;-87
2022/01/06 04:21:49;;;;;;;16.17;3.30;;;1.30;99.90;;;;;;4836685;29;20064;-87
2022/01/06 04:24:14;;;;;;;20.00;2.72;;;1.30;99.90;;;;;;4822349;29;20137;-87
2022/01/06 04:26:41;;;;;;;20.65;2.75;;;1.30;99.90;;;;;;4822012;29;20057;-87
2022/01/06 04:29:06;;;;;;;17.30;3.03;;;1.20;99.90;;;;;;4837294;29;20046;-87
2022/01/06 04:31:32;;;;;;;24.85;3.90;;;1.20;99.90;;;;;;4837152;29;20551;-88
2022/01/06 04:33:58;;;;;;;16.90;3.13;;;1.20;99.90;;;;;;4837238;29;20050;-87
2022/01/06 04:36:23;;;;;;;16.17;3.15;;;1.20;99.90;;;;;;4836635;29;20046;-87
2022/01/06 04:38:49;;;;;;;17.95;3.05;;;1.20;99.90;;;;;;4836748;29;20509;-88
2022/01/06 04:41:14;;;;;;;29.42;3.28;;;1.20;99.90;;;;;;4821713;29;20421;-87
2022/01/06 04:43:40;;;;;;;26.08;4.10;;;1.20;99.90;;;;;;4824681;29;20053;-88
2022/01/06 04:46:05;;;;;;;27.20;3.20;;;1.20;99.90;;;;;;4833259;29;20088;-88
2022/01/06 04:48:32;;;;;;;22.42;3.35;;;1.20;99.90;;;;;;4822140;29;20053;-87
2022/01/06 04:50:58;;;;;;;23.08;3.00;;;1.20;99.90;;;;;;4829179;29;20069;-88
2022/01/06 04:53:23;;;;;;;21.83;2.92;;;1.20;99.90;;;;;;4843530;29;20514;-88
2022/01/06 04:55:51;;;;;;;20.45;3.40;;;1.20;99.90;;;;;;4843116;29;20073;-88
2022/01/06 04:58:17;;;;;;;19.95;3.38;;;1.10;99.90;;;;;;4843311;29;20053;-87
2022/01/06 05:00:43;;;;;;;19.45;3.10;;;1.10;99.90;;;;;;4842943;29;20454;-87
2022/01/06 05:03:08;;;;;;;18.83;3.30;;;1.10;99.90;;;;;;4843269;29;20137;-87
2022/01/06 05:05:34;;;;;;;15.70;3.15;;;1.20;99.90;;;;;;4842762;29;20042;-87
2022/01/06 05:08:00;;;;;;;22.05;3.05;;;1.00;99.90;;;;;;4842982;29;20543;-87
2022/01/06 05:10:26;;;;;;;17.20;2.75;;;1.00;99.90;;;;;;4843181;29;20500;-87
2022/01/06 05:12:51;;;;;;;28.30;3.45;;;1.10;99.90;;;;;;4842568;29;20078;-88
2022/01/06 05:15:17;;;;;;;18.48;2.92;;;1.00;99.90;;;;;;4827470;29;20169;-87
2022/01/06 05:17:43;;;;;;;17.42;2.90;;;1.00;99.90;;;;;;4842579;29;20074;-87
2022/01/06 05:20:09;;;;;;;17.38;3.20;;;1.00;99.90;;;;;;4842554;29;20037;-87
2022/01/06 05:22:41;;;;;;;21.65;2.92;;;0.90;99.90;;;;;;4827608;29;20041;-88
2022/01/06 05:25:08;;;;;;;21.90;3.45;;;0.90;99.90;;;;;;4827519;29;20094;-87
2022/01/06 05:27:33;;;;;;;19.88;3.13;;;0.90;99.90;;;;;;4843168;29;20042;-88
2022/01/06 05:29:59;;;;;;;24.63;4.05;;;0.90;99.90;;;;;;4842552;29;20405;-87
2022/01/06 05:32:24;;;;;;;24.52;3.90;;;0.80;99.90;;;;;;4842871;29;20041;-87
2022/01/06 05:34:50;;;;;;;26.92;3.25;;;0.80;99.90;;;;;;4842044;29;20049;-88
2022/01/06 05:37:15;;;;;;;16.80;3.05;;;0.80;99.90;;;;;;4842846;29;20097;-87
2022/01/06 05:39:41;;;;;;;19.77;3.67;;;0.90;99.90;;;;;;4827204;29;20493;-87
2022/01/06 05:42:07;;;;;;;17.08;3.05;;;0.70;99.90;;;;;;4810963;29;20046;-88
2022/01/06 05:44:34;;;;;;;28.40;3.95;;;0.80;99.90;;;;;;4821266;29;20073;-88
2022/01/06 05:47:00;;;;;;;30.67;3.95;;;0.80;99.90;;;;;;4836104;29;20132;-88
2022/01/06 05:49:26;;;;;;;32.30;4.00;;;0.70;99.90;;;;;;4823985;29;20057;-88
2022/01/06 05:51:51;;;;;;;27.55;4.03;;;0.70;99.90;;;;;;4823725;29;20050;-88
2022/01/06 05:54:17;;;;;;;24.98;3.50;;;0.70;99.90;;;;;;4824104;29;20053;-87
2022/01/06 05:56:42;;;;;;;22.95;3.53;;;0.60;99.90;;;;;;4824121;29;20049;-87
2022/01/06 05:59:08;;;;;;;22.80;3.90;;;0.70;99.90;;;;;;4839620;29;20409;-87
2022/01/06 06:01:33;;;;;;;30.25;4.68;;;0.70;99.90;;;;;;4838585;29;20041;-88
2022/01/06 06:03:59;;;;;;;24.90;6.57;;;0.70;99.90;;;;;;4838742;29;20110;-87
2022/01/06 06:06:24;;;;;;;21.77;5.30;;;0.60;99.90;;;;;;4839020;29;20548;-87
2022/01/06 06:08:50;;;;;;;23.52;6.90;;;0.60;99.90;;;;;;4839202;29;20520;-87
2022/01/06 06:11:16;;;;;;;29.77;7.18;;;0.60;99.90;;;;;;4838801;29;20054;-88
2022/01/06 06:13:41;;;;;;;33.90;13.05;;;0.60;99.90;;;;;;4839009;29;20141;-88
2022/01/06 06:16:07;;;;;;;33.90;10.45;;;0.60;99.90;;;;;;4838832;29;20050;-88
2022/01/06 06:18:32;;;;;;;25.20;6.07;;;0.70;99.90;;;;;;4838609;29;20101;-88
2022/01/06 06:20:58;;;;;;;30.92;5.20;;;0.70;99.90;;;;;;4838339;29;20054;-87
2022/01/06 06:23:23;;;;;;;26.42;4.63;;;0.60;99.90;;;;;;4839152;29;20049;-87
2022/01/06 06:25:49;;;;;;;21.80;4.03;;;0.60;99.90;;;;;;4838524;29;20056;-87
2022/01/06 06:28:15;;;;;;;22.80;4.13;;;0.50;99.90;;;;;;4823975;29;20401;-87
2022/01/06 06:30:40;;;;;;;20.80;3.50;;;0.50;99.90;;;;;;4823578;29;20046;-88
2022/01/06 06:33:06;;;;;;;19.30;3.63;;;0.50;99.90;;;;;;4838477;29;20046;-88
2022/01/06 06:35:32;;;;;;;25.65;3.90;;;0.50;99.90;;;;;;4823210;29;20532;-88
2022/01/06 06:37:58;;;;;;;20.40;3.60;;;0.40;99.90;;;;;;4818936;29;20037;-87
2022/01/06 06:40:23;;;;;;;26.48;4.35;;;0.40;99.90;;;;;;4838502;29;20106;-88
2022/01/06 06:42:52;;;;;;;22.83;4.65;;;0.40;99.90;;;;;;4838280;29;20442;-87
2022/01/06 06:45:19;;;;;;;23.20;4.20;;;0.40;99.90;;;;;;4823271;29;20062;-87
2022/01/06 06:47:46;;;;;;;20.63;3.95;;;0.40;99.90;;;;;;4822701;29;20220;-88
2022/01/06 06:50:15;;;;;;;17.27;4.93;;;0.40;99.90;;;;;;4838637;29;20049;-88
2022/01/06 06:52:41;;;;;;;30.52;6.15;;;0.40;99.90;;;;;;4838194;29;20077;-88
2022/01/06 06:55:07;;;;;;;27.92;5.40;;;0.30;99.90;;;;;;4838356;29;20085;-87
2022/01/06 06:57:33;;;;;;;25.50;5.63;;;0.30;99.90;;;;;;4837862;29;20558;-88
2022/01/06 07:00:03;;;;;;;22.55;5.85;;;0.30;99.90;;;;;;4837817;29;20062;-87
2022/01/06 07:02:29;;;;;;;26.65;5.25;;;0.30;99.90;;;;;;4837586;29;20042;-88
2022/01/06 07:04:54;;;;;;;28.42;5.45;;;0.30;99.90;;;;;;4837905;29;20050;-87
2022/01/06 07:07:20;;;;;;;26.98;4.68;;;0.30;99.90;;;;;;4837888;29;20042;-87
2022/01/06 07:09:45;;;;;;;25.60;5.05;;;0.30;99.90;;;;;;4823063;29;21847;-89
2022/01/06 07:12:11;;;;;;;27.65;4.97;;;0.30;99.90;;;;;;4829643;29;20056;-88
2022/01/06 07:14:37;;;;;;;22.38;4.93;;;0.40;99.90;;;;;;4834954;29;20058;-89
2022/01/06 07:17:02;;;;;;;21.38;5.28;;;0.30;99.90;;;;;;4855448;29;20057;-89
2022/01/06 07:19:28;;;;;;;23.00;5.68;;;0.30;99.90;;;;;;4822892;29;20121;-90
2022/01/06 07:21:53;;;;;;;23.23;5.65;;;0.40;99.90;;;;;;4822541;29;20049;-90
2022/01/06 07:24:19;;;;;;;25.38;5.30;;;0.40;99.90;;;;;;4822927;29;20580;-89
2022/01/06 07:26:45;;;;;;;25.92;5.28;;;0.40;99.90;;;;;;4823202;29;20481;-87
2022/01/06 07:29:10;;;;;;;17.95;4.70;;;0.40;99.90;;;;;;4822703;29;20085;-89
2022/01/06 07:31:36;;;;;;;26.17;4.50;;;0.30;99.90;;;;;;4821628;29;20042;-89
2022/01/06 07:34:02;;;;;;;24.98;4.43;;;0.30;99.90;;;;;;4822787;29;20511;-88
2022/01/06 07:36:27;;;;;;;31.65;4.25;;;0.40;99.90;;;;;;4835900;29;20090;-88
2022/01/06 07:38:53;;;;;;;33.13;5.13;;;0.40;99.90;;;;;;4828983;29;20045;-88
2022/01/06 07:41:18;;;;;;;29.33;4.93;;;0.40;99.90;;;;;;4822725;29;20042;-88
2022/01/06 07:43:44;;;;;;;32.42;4.68;;;0.40;99.90;;;;;;4837385;29;20501;-88
2022/01/06 07:46:10;;;;;;;21.88;4.63;;;0.40;99.90;;;;;;4835187;29;20054;-88
2022/01/06 07:48:53;;;;;;;24.25;5.05;;;0.40;99.90;;;;;;4832019;29;20068;-88
2022/01/06 07:51:18;;;;;;;31.30;4.60;;;0.40;99.90;;;;;;4830229;29;20062;-87
2022/01/06 07:53:44;;;;;;;26.65;4.20;;;0.40;99.90;;;;;;4836523;29;20137;-88
2022/01/06 07:56:09;;;;;;;34.25;4.97;;;0.40;99.90;;;;;;4820584;29;20049;-88
2022/01/06 07:58:35;;;;;;;24.65;4.25;;;0.40;99.90;;;;;;4851332;29;20469;-88
2022/01/06 08:01:01;;;;;;;20.80;3.90;;;0.30;99.90;;;;;;4820693;29;20054;-88
2022/01/06 08:03:27;;;;;;;28.40;4.65;;;0.40;99.90;;;;;;4829195;29;20045;-89
2022/01/06 08:05:52;;;;;;;21.40;4.25;;;0.40;99.90;;;;;;4820199;29;20050;-87
2022/01/06 08:08:18;;;;;;;23.58;3.90;;;0.50;99.90;;;;;;4815697;29;20058;-88
2022/01/06 08:10:43;;;;;;;21.80;4.78;;;0.50;99.90;;;;;;4820513;29;20045;-88
2022/01/06 08:13:09;;;;;;;28.40;4.50;;;0.50;99.90;;;;;;4823486;29;20054;-86
2022/01/06 08:15:34;;;;;;;28.85;5.25;;;0.50;99.90;;;;;;4836919;29;20045;-86
2022/01/06 08:18:00;;;;;;;27.35;4.40;;;0.60;99.90;;;;;;4836283;29;20473;-85
2022/01/06 08:20:25;;;;;;;25.75;4.78;;;0.60;99.90;;;;;;4821259;29;20520;-86
2022/01/06 08:22:51;;;;;;;25.73;4.60;;;0.70;99.90;;;;;;4812223;29;20061;-86
2022/01/06 08:25:17;;;;;;;26.23;5.03;;;0.80;99.90;;;;;;4821694;29;20057;-86
2022/01/06 08:27:42;;;;;;;27.85;4.85;;;1.00;99.90;;;;;;4826120;29;20501;-87
2022/01/06 08:30:09;;;;;;;31.52;5.13;;;0.90;99.90;;;;;;4837927;29;20464;-86
2022/01/06 08:32:35;;;;;;;25.25;4.55;;;0.90;99.90;;;;;;4820561;29;20071;-86
2022/01/06 08:35:02;;;;;;;25.50;5.60;;;0.90;99.90;;;;;;4838259;29;20527;-86
2022/01/06 08:37:27;;;;;;;21.33;4.60;;;0.90;99.90;;;;;;4834197;29;20041;-86
2022/01/06 08:39:53;;;;;;;24.85;4.38;;;0.90;99.90;;;;;;4838794;29;20162;-86
2022/01/06 08:42:18;;;;;;;25.30;5.05;;;0.90;99.90;;;;;;4832503;29;20517;-86
2022/01/06 08:44:44;;;;;;;31.73;4.60;;;0.90;99.90;;;;;;4838048;29;20476;-86
2022/01/06 08:47:10;;;;;;;22.52;4.93;;;0.90;99.90;;;;;;4826195;29;20054;-86
2022/01/06 08:49:36;;;;;;;27.55;4.80;;;0.90;99.90;;;;;;4838313;29;20042;-86
2022/01/06 08:52:03;;;;;;;28.02;5.10;;;0.90;99.90;;;;;;4827235;29;20046;-86
2022/01/06 08:54:29;;;;;;;24.33;4.82;;;1.00;99.90;;;;;;4823675;29;20053;-86
2022/01/06 08:56:54;;;;;;;34.13;5.28;;;1.00;99.90;;;;;;4821678;29;20401;-86
2022/01/06 08:59:20;;;;;;;25.10;5.45;;;1.10;99.90;;;;;;4838378;29;20078;-86
2022/01/06 09:01:46;;;;;;;27.77;5.38;;;1.20;99.90;;;;;;4822263;29;20050;-86
2022/01/06 09:04:11;;;;;;;29.40;5.95;;;1.30;99.90;;;;;;4838191;29;20053;-86
2022/01/06 09:06:37;;;;;;;37.55;6.72;;;1.50;99.90;;;;;;4838182;29;20109;-86
2022/01/06 09:09:03;;;;;;;29.20;6.25;;;1.80;99.90;;;;;;4823296;29;20057;-85
2022/01/06 09:11:28;;;;;;;35.90;6.38;;;1.90;99.90;;;;;;4837690;29;20046;-85
2022/01/06 09:13:54;;;;;;;38.17;6.50;;;2.10;99.90;;;;;;4822877;29;20054;-85
2022/01/06 09:16:19;;;;;;;37.20;7.68;;;2.30;99.90;;;;;;4838343;29;20049;-88
2022/01/06 09:18:45;;;;;;;31.98;6.47;;;2.40;99.90;;;;;;4823007;29;20446;-86
2022/01/06 09:21:11;;;;;;;43.10;6.53;;;2.50;99.90;;;;;;4823632;29;20074;-86
2022/01/06 09:23:36;;;;;;;38.15;5.80;;;2.50;99.90;;;;;;4837782;29;20412;-87
2022/01/06 09:26:02;;;;;;;39.85;6.43;;;2.60;99.90;;;;;;4838610;29;20045;-87
2022/01/06 09:28:28;;;;;;;30.60;5.55;;;2.70;99.90;;;;;;4823835;29;20046;-85
2022/01/06 09:30:56;;;;;;;31.25;6.00;;;2.70;99.90;;;;;;4838736;29;20538;-85
2022/01/06 09:33:22;;;;;;;34.20;5.88;;;2.80;99.90;;;;;;4838345;29;20481;-85
2022/01/06 09:35:51;;;;;;;39.58;5.35;;;2.70;99.90;;;;;;4837492;29;20054;-85
2022/01/06 09:38:17;;;;;;;28.73;6.13;;;2.80;99.90;;;;;;4838862;29;20049;-86
2022/01/06 09:40:44;;;;;;;33.42;5.72;;;2.90;99.90;;;;;;4838188;29;20516;-85
2022/01/06 09:43:12;;;;;;;28.30;4.47;;;3.10;99.90;;;;;;4838640;29;20098;-85
2022/01/06 09:45:39;;;;;;;34.28;5.50;;;3.10;99.90;;;;;;4838442;29;20516;-85
2022/01/06 09:48:05;;;;;;;35.25;5.47;;;3.20;99.90;;;;;;4838075;29;20041;-85
2022/01/06 09:50:32;;;;;;;34.30;5.93;;;3.40;99.90;;;;;;4839901;29;20082;-85
2022/01/06 09:52:57;;;;;;;32.80;5.72;;;3.50;99.90;;;;;;4838222;29;20050;-85
2022/01/06 09:55:23;;;;;;;29.90;6.40;;;3.60;99.90;;;;;;4837847;29;20048;-85
2022/01/06 09:58:01;;;;;;;33.35;5.80;;;3.80;99.90;;;;;;4838408;29;20053;-85
2022/01/06 10:00:29;;;;;;;33.95;5.53;;;4.00;99.90;;;;;;4820190;29;20061;-85
2022/01/06 10:02:57;;;;;;;29.10;5.22;;;4.30;99.90;;;;;;4819839;29;20054;-85
2022/01/06 10:05:24;;;;;;;31.30;4.93;;;4.40;99.90;;;;;;4820137;29;20059;-85
2022/01/06 10:07:53;;;;;;;35.55;5.03;;;4.60;99.90;;;;;;4821150;29;20046;-85
2022/01/06 10:10:24;;;;;;;29.15;4.82;;;4.70;99.90;;;;;;4819692;29;20406;-85
2022/01/06 10:12:58;;;;;;;28.73;4.07;;;4.80;99.90;;;;;;4835209;29;20535;-85
2022/01/06 10:15:27;;;;;;;33.25;4.95;;;5.10;99.90;;;;;;4819849;29;20133;-85
2022/01/06 10:17:55;;;;;;;26.83;5.07;;;5.30;99.90;;;;;;4820043;29;20058;-85
2022/01/06 10:20:27;;;;;;;29.52;5.15;;;5.50;99.90;;;;;;4804909;29;20057;-85
2022/01/06 10:22:54;;;;;;;30.92;5.82;;;5.90;99.90;;;;;;4819809;29;20134;-86
2022/01/06 10:25:22;;;;;;;35.00;5.03;;;6.10;99.90;;;;;;4821141;29;20966;-85
2022/01/06 10:27:51;;;;;;;24.02;4.90;;;6.20;99.90;;;;;;4834842;29;20046;-85
2022/01/06 10:30:17;;;;;;;29.13;4.45;;;6.30;99.90;;;;;;4838065;29;20050;-85
2022/01/06 10:32:43;;;;;;;19.30;4.45;;;6.50;99.90;;;;;;4832630;29;20454;-85
2022/01/06 10:35:11;;;;;;;27.02;4.85;;;6.60;99.90;;;;;;4819558;29;20529;-86
2022/01/06 10:37:44;;;;;;;26.35;4.18;;;6.70;99.90;;;;;;4848000;29;20486;-85
2022/01/06 10:40:25;;;;;;;23.77;4.75;;;6.80;99.90;;;;;;4836938;29;20050;-85
2022/01/06 10:42:53;;;;;;;21.52;4.45;;;6.80;99.90;;;;;;4837598;29;20054;-86
2022/01/06 10:45:25;;;;;;;21.98;5.50;;;6.60;99.90;;;;;;4837163;29;20054;-86
2022/01/06 10:47:56;;;;;;;33.30;5.57;;;6.60;99.90;;;;;;4836506;29;20516;-86
2022/01/06 10:50:42;;;;;;;44.33;14.05;;;6.50;99.90;;;;;;4825406;29;20042;-88
2022/01/06 10:53:10;;;;;;;58.80;21.65;;;6.40;99.90;;;;;;4821902;29;20045;-87
2022/01/06 10:55:38;;;;;;;25.02;6.53;;;6.30;99.90;;;;;;4841876;29;20049;-85
2022/01/06 10:58:08;;;;;;;25.67;6.57;;;6.20;99.90;;;;;;4811535;29;20086;-85
2022/01/06 11:00:37;;;;;;;33.78;5.50;;;6.10;99.90;;;;;;4819261;29;20081;-85
2022/01/06 11:03:13;;;;;;;57.35;27.33;;;6.10;99.90;;;;;;4839359;29;20049;-85
2022/01/06 11:05:40;;;;;;;27.75;6.68;;;6.10;99.90;;;;;;4843192;29;20050;-85
2022/01/06 11:08:07;;;;;;;29.52;8.63;;;6.20;99.90;;;;;;4837122;29;20103;-85
2022/01/06 11:10:45;;;;;;;29.88;6.15;;;6.40;99.90;;;;;;4836697;29;20078;-85
2022/01/06 11:13:11;;;;;;;31.48;5.10;;;6.50;99.90;;;;;;4837140;29;20052;-86
2022/01/06 11:15:36;;;;;;;26.80;5.57;;;6.50;99.90;;;;;;4836305;29;20096;-85
2022/01/06 11:18:04;;;;;;;30.13;4.55;;;6.60;99.90;;;;;;4839606;29;20073;-86
2022/01/06 11:20:31;;;;;;;29.83;4.85;;;6.80;99.90;;;;;;4836909;29;20052;-86
2022/01/06 11:22:58;;;;;;;22.80;4.15;;;6.90;99.90;;;;;;4823407;29;20100;-86
2022/01/06 11:25:38;;;;;;;28.15;5.75;;;7.10;99.90;;;;;;4843451;29;20089;-85
2022/01/06 11:28:10;;;;;;;28.77;5.15;;;7.30;99.90;;;;;;4838686;29;20515;-86
2022/01/06 11:30:41;;;;;;;22.15;4.63;;;7.50;99.90;;;;;;4836698;29;20082;-85
2022/01/06 11:33:07;;;;;;;30.95;6.20;;;7.70;99.90;;;;;;4841110;29;20053;-86
2022/01/06 11:35:51;;;;;;;21.48;4.50;;;8.00;99.90;;;;;;4837210;29;20053;-86
2022/01/06 11:38:19;;;;;;;29.10;4.35;;;8.40;99.90;;;;;;4836590;29;20062;-87
2022/01/06 11:40:47;;;;;;;37.40;5.65;;;8.80;99.90;;;;;;4834549;29;20085;-86
2022/01/06 11:43:13;;;;;;;31.70;8.05;;;9.20;99.90;;;;;;4836426;29;20136;-85
2022/01/06 11:45:39;;;;;;;21.30;4.47;;;9.30;99.90;;;;;;4836163;29;20062;-85
2022/01/06 11:48:13;;;;;;;25.23;5.15;;;9.20;99.90;;;;;;4836180;29;20050;-85
2022/01/06 11:50:41;;;;;;;32.47;4.93;;;9.00;99.90;;;;;;4836302;29;20047;-87
2022/01/06 11:53:08;;;;;;;26.40;5.28;;;8.70;99.90;;;;;;4839062;29;20094;-87
2022/01/06 11:55:44;;;;;;;21.65;4.30;;;8.40;99.90;;;;;;4836114;29;20046;-86
2022/01/06 11:58:18;;;;;;;24.77;5.75;;;8.20;99.90;;;;;;4821462;29;20050;-86
2022/01/06 12:01:07;;;;;;;31.60;8.95;;;7.90;99.90;;;;;;4842529;29;20049;-86
2022/01/06 12:03:41;;;;;;;29.95;6.07;;;7.60;99.90;;;;;;4832412;29;20125;-88
2022/01/06 12:06:09;;;;;;;25.83;5.30;;;7.30;99.90;;;;;;4844823;29;20124;-87
2022/01/06 12:08:40;;;;;;;27.02;5.68;;;7.10;99.90;;;;;;4842669;29;20061;-87
2022/01/06 12:11:09;;;;;;;24.63;5.68;;;6.90;99.90;;;;;;4843093;29;20138;-87
2022/01/06 12:13:45;;;;;;;27.05;5.70;;;6.70;99.90;;;;;;4843507;29;20057;-87
2022/01/06 12:16:11;;;;;;;22.98;5.53;;;6.60;99.90;;;;;;4843362;29;20065;-88
2022/01/06 12:18:37;;;;;;;25.00;4.97;;;6.50;99.90;;;;;;4843297;29;20058;-88
2022/01/06 12:21:03;;;;;;;26.00;5.40;;;6.40;99.90;;;;;;4844827;29;20731;-87
2022/01/06 12:23:29;;;;;;;28.15;5.40;;;6.20;99.90;;;;;;4827840;29;20463;-88
2022/01/06 12:26:03;;;;;;;30.10;5.47;;;6.10;99.90;;;;;;4843172;29;20042;-90
2022/01/06 12:28:35;;;;;;;25.50;5.22;;;6.10;99.90;;;;;;4828355;29;20666;-88
2022/01/06 12:31:03;;;;;;;28.08;9.93;;;5.90;99.90;;;;;;4828275;29;20038;-88
2022/01/06 12:33:31;;;;;;;31.02;6.63;;;5.90;99.90;;;;;;4843730;29;20053;-89
2022/01/06 12:35:57;;;;;;;46.67;12.65;;;5.80;99.90;;;;;;4828130;29;20481;-88
2022/01/06 12:38:32;;;;;;;28.83;6.10;;;5.70;99.90;;;;;;4843163;29;20397;-88
2022/01/06 12:40:59;;;;;;;28.35;6.85;;;5.70;99.90;;;;;;4842877;29;20110;-90
2022/01/06 12:43:30;;;;;;;32.80;6.05;;;5.60;99.90;;;;;;4844186;29;20049;-88
2022/01/06 12:46:08;;;;;;;24.80;5.93;;;5.60;99.90;;;;;;4832430;29;20053;-88
2022/01/06 12:48:43;;;;;;;22.17;4.45;;;5.50;99.90;;;;;;4843795;29;20050;-88
2022/01/06 12:51:11;;;;;;;29.52;5.70;;;5.40;99.90;;;;;;4829797;29;20070;-88
2022/01/06 12:53:41;;;;;;;17.65;4.60;;;5.40;99.90;;;;;;4846074;29;20050;-88